Strona główna
METAR-TAF:

METAR-TAF

Lotnisko :

Büchel, Niemcy

Szerokość geograficzna: 50-10N, Długość geograficzna: 007-04E, wysokość: 478 m

Aktualna obserwacja pogody

Raport powstał 54 minut temu, godzina 23:20 UTC
Wiatr 5 kt od wschód
Temperatura 24°C
Wilgotność 44%
Ciśnienie 1019 hPa
Widzialność: 7000 m

METAR: ETSB 232320Z AUTO 09005KT 7000 // ////// 24/11 Q1019 ///

czas: 02:14 (00:14 UTC)

Prognoza

Raport powstał 10 godziny i 54 minut temu, godzina 13:20 UTC
Prognoza ważna od 23 godzina 14 UTC do 23 godzina 23 UTC
Wiatr 8 kt od wschód
Widzialność: 1600 m
Mało chmury na wysokości 35000 ft

TAF: ETSB 231320Z 2314/2323 09008KT 9999 NSW FEW350 CANCEL 1600 BY ETGL

Obserwacja i prognoza pogody dla ponad 4000 lotnisk (raport METAR i TAF).

Dostępne stacje oznaczono żółtymi i czerwonymi punktami na mapie.

Najedź kursorem aby zobaczyć nazwę stacji.

Kliknij aby zobaczyć obserwacje i prognozy pogody.

Aby zmienić mapę: kliknij na zielony przycisk z czarnym krzyżykiem, aby powiększyć; na zielony przycisk z myślnikiem, aby pomniejszyć; na zielone strzałki, aby przejść do map sąsiednich.


METAR-TAF: